Camp Hill, Queensland

10:52 AM AEST on May 07, 2015 (GMT +1000)
Coorparoo | | Change Station
CLOSE
Current Station
Personal Weather Station
Location: Coorparoo, QLD
Elevation: 115 ft
Nearby Weather Stations

Elev 115 ft 27.50 °S, 153.07 °E | Updated 1 second ago

Clear
Clear
70.8 °F
Feels Like 77 °F
N
2.0
Wind Variable Wind from SSE
Gusts 3.0 mph

Today
High -- | Low -- °F
--% Chance of Precip.
Yesterday
High -- | Low -- °F
Precip. -- in
6:16 AM 5:12 PM
Waning Gibbous, 91% visible
Pressure 30.04 in
Visibility -9999.0 miles
Clouds
Heat Index 77 °F
Dew Point 52.3 °F
Humidity 52%
Rainfall 0.00 in
Snow Depth Not available.
UV 4.7 out of 12
Pollen Not available.
Air Quality Not available.
Flu Activity Not available.
METAR YAMB 070030Z 28005KT CAVOK 21/06 Q1017

More Conditions Fewer Conditions

Pressure 30.04 in
Visibility -9999.0 miles
Clouds
Heat Index 77 °F
Dew Point 52.3 °F
Humidity 52%
Rainfall 0.00 in
Snow Depth Not available.
UV 4.7 out of 12
Pollen Not available.
Air Quality Not available.
Flu Activity Not available.
METAR YAMB 070030Z 28005KT CAVOK 21/06 Q1017

More Conditions Fewer Conditions

10-Day Weather Forecast

Almanac

Astronomy

May. 07, 2015 Rise Set
Actual Time
Civil Twilight
Nautical Twilight
Astronomical Twilight
Moon
Length of Visible Light
Length of Day
Tomorrow will be .
, % of the Moon is Illuminated

Today's Extremes

Country Highs Country Lows

Community

WunderPhotos

Upload Photos

1,819,061 photos uploaded!

WunderBlogs® & News

Nearby

Air Quality

  Air Quality AQ Index Pollutant
Not available.

Snow Depth

Station Depth Elevation

Earthquake Activity

City Distance Mag. Time & Date
Minimum magnitude displayed is 2.5.

Coastal Water Temperatures

Place Temperature

Stations

Nearby Weather Stations

Station Location Temp. Windchill Dew Point Humidity Wind Precip. Elev Updated Type